sensor_id;sensor_type;location;lat;lon;timestamp;P1;durP1;ratioP1;P2;durP2;ratioP2
18159;SDS011;9205;52.032;4.314;2023-05-10T00:00:55;10.50;;;7.00;;
18159;SDS011;9205;52.032;4.314;2023-05-10T00:03:22;10.73;;;6.67;;
18159;SDS011;9205;52.032;4.314;2023-05-10T00:05:49;10.13;;;6.30;;
18159;SDS011;9205;52.032;4.314;2023-05-10T00:08:16;9.03;;;6.30;;
18159;SDS011;9205;52.032;4.314;2023-05-10T00:10:44;9.90;;;6.30;;
18159;SDS011;9205;52.032;4.314;2023-05-10T00:13:11;10.47;;;6.33;;
18159;SDS011;9205;52.032;4.314;2023-05-10T00:15:40;11.77;;;7.10;;
18159;SDS011;9205;52.032;4.314;2023-05-10T00:18:08;11.67;;;6.50;;
18159;SDS011;9205;52.032;4.314;2023-05-10T00:20:35;11.27;;;6.50;;
18159;SDS011;9205;52.032;4.314;2023-05-10T00:23:02;10.27;;;6.60;;
18159;SDS011;9205;52.032;4.314;2023-05-10T00:25:29;10.77;;;6.60;;
18159;SDS011;9205;52.032;4.314;2023-05-10T00:27:57;13.77;;;7.00;;
18159;SDS011;9205;52.032;4.314;2023-05-10T00:30:26;13.40;;;7.07;;
18159;SDS011;9205;52.032;4.314;2023-05-10T00:32:55;14.03;;;7.17;;
18159;SDS011;9205;52.032;4.314;2023-05-10T00:35:22;12.80;;;7.63;;
18159;SDS011;9205;52.032;4.314;2023-05-10T00:37:50;12.23;;;6.97;;
18159;SDS011;9205;52.032;4.314;2023-05-10T00:40:17;14.07;;;7.67;;
18159;SDS011;9205;52.032;4.314;2023-05-10T00:42:49;13.93;;;7.97;;
18159;SDS011;9205;52.032;4.314;2023-05-10T00:45:16;12.97;;;7.63;;
18159;SDS011;9205;52.032;4.314;2023-05-10T00:47:44;11.80;;;7.33;;
18159;SDS011;9205;52.032;4.314;2023-05-10T00:50:13;17.47;;;8.30;;
18159;SDS011;9205;52.032;4.314;2023-05-10T00:52:41;20.07;;;9.57;;
18159;SDS011;9205;52.032;4.314;2023-05-10T00:55:09;20.50;;;10.53;;
18159;SDS011;9205;52.032;4.314;2023-05-10T00:57:38;19.50;;;10.07;;
18159;SDS011;9205;52.032;4.314;2023-05-10T01:00:06;20.67;;;9.97;;
18159;SDS011;9205;52.032;4.314;2023-05-10T01:02:34;25.53;;;10.57;;
18159;SDS011;9205;52.032;4.314;2023-05-10T01:05:02;20.33;;;10.17;;
18159;SDS011;9205;52.032;4.314;2023-05-10T01:07:32;23.27;;;10.77;;
18159;SDS011;9205;52.032;4.314;2023-05-10T01:09:59;22.23;;;10.53;;
18159;SDS011;9205;52.032;4.314;2023-05-10T01:12:27;20.17;;;9.93;;
18159;SDS011;9205;52.032;4.314;2023-05-10T01:14:54;22.57;;;10.60;;
18159;SDS011;9205;52.032;4.314;2023-05-10T01:17:22;25.17;;;9.93;;
18159;SDS011;9205;52.032;4.314;2023-05-10T01:19:50;22.03;;;9.57;;
18159;SDS011;9205;52.032;4.314;2023-05-10T01:29:05;20.30;;;9.50;;
18159;SDS011;9205;52.032;4.314;2023-05-10T01:32:01;21.63;;;9.80;;
18159;SDS011;9205;52.032;4.314;2023-05-10T01:34:54;24.20;;;9.70;;
18159;SDS011;9205;52.032;4.314;2023-05-10T01:37:33;20.43;;;9.03;;
18159;SDS011;9205;52.032;4.314;2023-05-10T01:40:13;28.07;;;10.50;;
18159;SDS011;9205;52.032;4.314;2023-05-10T01:42:50;24.37;;;9.33;;
18159;SDS011;9205;52.032;4.314;2023-05-10T01:45:24;21.43;;;8.93;;
18159;SDS011;9205;52.032;4.314;2023-05-10T01:48:09;20.60;;;9.47;;
18159;SDS011;9205;52.032;4.314;2023-05-10T01:50:38;22.37;;;9.03;;
18159;SDS011;9205;52.032;4.314;2023-05-10T01:53:10;18.73;;;9.37;;
18159;SDS011;9205;52.032;4.314;2023-05-10T01:55:45;25.97;;;10.40;;
18159;SDS011;9205;52.032;4.314;2023-05-10T01:58:18;21.33;;;11.03;;
18159;SDS011;9205;52.032;4.314;2023-05-10T02:00:51;24.27;;;10.07;;
18159;SDS011;9205;52.032;4.314;2023-05-10T02:03:23;20.93;;;10.37;;
18159;SDS011;9205;52.032;4.314;2023-05-10T02:05:53;22.37;;;11.30;;
18159;SDS011;9205;52.032;4.314;2023-05-10T02:08:23;24.13;;;11.07;;
18159;SDS011;9205;52.032;4.314;2023-05-10T02:10:52;20.50;;;10.67;;
18159;SDS011;9205;52.032;4.314;2023-05-10T02:13:23;27.93;;;12.57;;
18159;SDS011;9205;52.032;4.314;2023-05-10T02:15:52;24.37;;;10.80;;
18159;SDS011;9205;52.032;4.314;2023-05-10T02:18:23;19.03;;;10.80;;
18159;SDS011;9205;52.032;4.314;2023-05-10T02:20:54;16.20;;;8.93;;
18159;SDS011;9205;52.032;4.314;2023-05-10T02:23:24;21.20;;;10.33;;
18159;SDS011;9205;52.032;4.314;2023-05-10T02:25:53;21.27;;;10.10;;
18159;SDS011;9205;52.032;4.314;2023-05-10T02:28:23;23.50;;;10.57;;
18159;SDS011;9205;52.032;4.314;2023-05-10T02:30:52;18.87;;;9.37;;
18159;SDS011;9205;52.032;4.314;2023-05-10T02:33:21;20.77;;;10.30;;
18159;SDS011;9205;52.032;4.314;2023-05-10T02:35:52;19.43;;;10.27;;
18159;SDS011;9205;52.032;4.314;2023-05-10T02:38:20;19.17;;;9.80;;
18159;SDS011;9205;52.032;4.314;2023-05-10T02:40:49;18.27;;;9.97;;
18159;SDS011;9205;52.032;4.314;2023-05-10T02:43:18;20.73;;;11.33;;
18159;SDS011;9205;52.032;4.314;2023-05-10T02:45:48;21.67;;;10.50;;
18159;SDS011;9205;52.032;4.314;2023-05-10T02:48:16;24.40;;;11.97;;
18159;SDS011;9205;52.032;4.314;2023-05-10T02:50:45;24.20;;;11.03;;
18159;SDS011;9205;52.032;4.314;2023-05-10T02:53:18;20.87;;;10.90;;
18159;SDS011;9205;52.032;4.314;2023-05-10T02:55:53;20.50;;;10.77;;
18159;SDS011;9205;52.032;4.314;2023-05-10T02:58:29;23.73;;;11.43;;
18159;SDS011;9205;52.032;4.314;2023-05-10T03:00:56;20.60;;;10.27;;
18159;SDS011;9205;52.032;4.314;2023-05-10T03:03:23;24.10;;;10.80;;
18159;SDS011;9205;52.032;4.314;2023-05-10T03:05:53;20.13;;;10.50;;
18159;SDS011;9205;52.032;4.314;2023-05-10T03:08:22;22.23;;;10.97;;
18159;SDS011;9205;52.032;4.314;2023-05-10T03:10:54;24.00;;;10.97;;
18159;SDS011;9205;52.032;4.314;2023-05-10T03:13:36;19.30;;;10.00;;
18159;SDS011;9205;52.032;4.314;2023-05-10T03:16:14;30.00;;;10.87;;
18159;SDS011;9205;52.032;4.314;2023-05-10T03:18:48;26.07;;;11.13;;
18159;SDS011;9205;52.032;4.314;2023-05-10T03:21:24;27.23;;;11.37;;
18159;SDS011;9205;52.032;4.314;2023-05-10T03:23:58;26.03;;;11.03;;
18159;SDS011;9205;52.032;4.314;2023-05-10T03:26:34;21.83;;;10.30;;
18159;SDS011;9205;52.032;4.314;2023-05-10T03:29:09;23.67;;;9.90;;
18159;SDS011;9205;52.032;4.314;2023-05-10T03:31:39;30.90;;;11.60;;
18159;SDS011;9205;52.032;4.314;2023-05-10T03:34:06;24.90;;;11.10;;
18159;SDS011;9205;52.032;4.314;2023-05-10T03:36:35;26.53;;;10.03;;
18159;SDS011;9205;52.032;4.314;2023-05-10T03:39:02;28.50;;;10.33;;
18159;SDS011;9205;52.032;4.314;2023-05-10T03:41:29;25.37;;;10.37;;
18159;SDS011;9205;52.032;4.314;2023-05-10T03:43:56;28.97;;;11.00;;
18159;SDS011;9205;52.032;4.314;2023-05-10T03:46:24;27.57;;;10.70;;
18159;SDS011;9205;52.032;4.314;2023-05-10T03:48:51;32.30;;;10.93;;
18159;SDS011;9205;52.032;4.314;2023-05-10T03:51:18;28.77;;;11.03;;
18159;SDS011;9205;52.032;4.314;2023-05-10T03:53:48;28.50;;;10.73;;
18159;SDS011;9205;52.032;4.314;2023-05-10T03:56:16;31.40;;;9.60;;
18159;SDS011;9205;52.032;4.314;2023-05-10T03:58:44;21.67;;;7.07;;
18159;SDS011;9205;52.032;4.314;2023-05-10T04:01:11;22.90;;;5.67;;
18159;SDS011;9205;52.032;4.314;2023-05-10T04:03:38;22.87;;;5.13;;
18159;SDS011;9205;52.032;4.314;2023-05-10T04:06:06;15.67;;;4.70;;
18159;SDS011;9205;52.032;4.314;2023-05-10T04:08:36;12.23;;;3.73;;
18159;SDS011;9205;52.032;4.314;2023-05-10T04:11:08;14.50;;;3.53;;
18159;SDS011;9205;52.032;4.314;2023-05-10T04:13:37;7.80;;;2.93;;
18159;SDS011;9205;52.032;4.314;2023-05-10T04:16:05;8.47;;;3.43;;
18159;SDS011;9205;52.032;4.314;2023-05-10T04:18:32;12.53;;;3.03;;
18159;SDS011;9205;52.032;4.314;2023-05-10T04:20:59;9.63;;;3.43;;
18159;SDS011;9205;52.032;4.314;2023-05-10T04:23:27;6.87;;;2.73;;
18159;SDS011;9205;52.032;4.314;2023-05-10T04:25:58;7.20;;;2.77;;
18159;SDS011;9205;52.032;4.314;2023-05-10T04:28:28;7.43;;;2.80;;
18159;SDS011;9205;52.032;4.314;2023-05-10T04:31:00;7.07;;;3.10;;
18159;SDS011;9205;52.032;4.314;2023-05-10T04:33:28;4.90;;;2.60;;
18159;SDS011;9205;52.032;4.314;2023-05-10T04:35:55;4.07;;;2.87;;
18159;SDS011;9205;52.032;4.314;2023-05-10T04:38:23;5.00;;;2.97;;
18159;SDS011;9205;52.032;4.314;2023-05-10T04:40:50;5.80;;;2.47;;
18159;SDS011;9205;52.032;4.314;2023-05-10T04:43:18;5.97;;;2.83;;
18159;SDS011;9205;52.032;4.314;2023-05-10T04:45:46;4.87;;;2.53;;
18159;SDS011;9205;52.032;4.314;2023-05-10T04:48:15;6.03;;;3.47;;
18159;SDS011;9205;52.032;4.314;2023-05-10T04:50:42;6.47;;;3.50;;
18159;SDS011;9205;52.032;4.314;2023-05-10T04:53:09;6.30;;;3.10;;
18159;SDS011;9205;52.032;4.314;2023-05-10T04:55:37;6.90;;;4.03;;
18159;SDS011;9205;52.032;4.314;2023-05-10T04:58:04;6.23;;;4.03;;
18159;SDS011;9205;52.032;4.314;2023-05-10T05:00:31;9.30;;;4.63;;
18159;SDS011;9205;52.032;4.314;2023-05-10T05:03:01;7.60;;;4.17;;
18159;SDS011;9205;52.032;4.314;2023-05-10T05:05:29;7.90;;;4.93;;
18159;SDS011;9205;52.032;4.314;2023-05-10T05:07:56;6.40;;;4.47;;
18159;SDS011;9205;52.032;4.314;2023-05-10T05:10:23;7.97;;;4.40;;
18159;SDS011;9205;52.032;4.314;2023-05-10T05:12:50;8.53;;;4.70;;
18159;SDS011;9205;52.032;4.314;2023-05-10T05:15:18;6.80;;;3.70;;
18159;SDS011;9205;52.032;4.314;2023-05-10T05:17:45;7.90;;;4.07;;
18159;SDS011;9205;52.032;4.314;2023-05-10T05:20:14;7.97;;;4.30;;
18159;SDS011;9205;52.032;4.314;2023-05-10T05:22:41;6.27;;;3.80;;
18159;SDS011;9205;52.032;4.314;2023-05-10T05:25:08;5.87;;;3.60;;
18159;SDS011;9205;52.032;4.314;2023-05-10T05:27:36;5.97;;;3.50;;
18159;SDS011;9205;52.032;4.314;2023-05-10T05:30:04;5.97;;;3.60;;
18159;SDS011;9205;52.032;4.314;2023-05-10T05:32:33;4.93;;;3.07;;
18159;SDS011;9205;52.032;4.314;2023-05-10T05:35:00;5.27;;;3.10;;
18159;SDS011;9205;52.032;4.314;2023-05-10T05:37:29;6.73;;;3.07;;
18159;SDS011;9205;52.032;4.314;2023-05-10T05:39:56;6.70;;;3.13;;
18159;SDS011;9205;52.032;4.314;2023-05-10T05:42:23;5.63;;;3.40;;
18159;SDS011;9205;52.032;4.314;2023-05-10T05:44:50;6.73;;;3.70;;
18159;SDS011;9205;52.032;4.314;2023-05-10T05:47:18;5.43;;;3.07;;
18159;SDS011;9205;52.032;4.314;2023-05-10T05:49:45;7.07;;;3.50;;
18159;SDS011;9205;52.032;4.314;2023-05-10T05:52:12;8.30;;;3.43;;
18159;SDS011;9205;52.032;4.314;2023-05-10T05:54:41;8.03;;;3.90;;
18159;SDS011;9205;52.032;4.314;2023-05-10T05:57:09;11.27;;;4.60;;
18159;SDS011;9205;52.032;4.314;2023-05-10T05:59:36;9.13;;;4.17;;
18159;SDS011;9205;52.032;4.314;2023-05-10T06:02:07;7.77;;;4.80;;
18159;SDS011;9205;52.032;4.314;2023-05-10T06:04:34;10.83;;;4.80;;
18159;SDS011;9205;52.032;4.314;2023-05-10T06:07:01;11.77;;;4.87;;
18159;SDS011;9205;52.032;4.314;2023-05-10T06:09:28;11.60;;;5.27;;
18159;SDS011;9205;52.032;4.314;2023-05-10T06:11:57;12.57;;;5.27;;
18159;SDS011;9205;52.032;4.314;2023-05-10T06:14:24;10.67;;;5.13;;
18159;SDS011;9205;52.032;4.314;2023-05-10T06:16:51;14.80;;;6.10;;
18159;SDS011;9205;52.032;4.314;2023-05-10T06:19:18;13.07;;;5.33;;
18159;SDS011;9205;52.032;4.314;2023-05-10T06:21:46;16.07;;;5.93;;
18159;SDS011;9205;52.032;4.314;2023-05-10T06:24:13;12.87;;;5.40;;
18159;SDS011;9205;52.032;4.314;2023-05-10T06:26:40;13.53;;;5.63;;
18159;SDS011;9205;52.032;4.314;2023-05-10T06:29:08;14.33;;;5.30;;
18159;SDS011;9205;52.032;4.314;2023-05-10T06:31:37;11.23;;;5.67;;
18159;SDS011;9205;52.032;4.314;2023-05-10T06:34:04;13.77;;;6.73;;
18159;SDS011;9205;52.032;4.314;2023-05-10T06:36:33;13.03;;;6.10;;
18159;SDS011;9205;52.032;4.314;2023-05-10T06:39:00;12.50;;;5.87;;
18159;SDS011;9205;52.032;4.314;2023-05-10T06:41:30;12.13;;;5.97;;
18159;SDS011;9205;52.032;4.314;2023-05-10T06:43:57;11.87;;;5.50;;
18159;SDS011;9205;52.032;4.314;2023-05-10T06:46:26;14.67;;;5.43;;
18159;SDS011;9205;52.032;4.314;2023-05-10T06:48:53;10.63;;;5.23;;
18159;SDS011;9205;52.032;4.314;2023-05-10T06:51:20;7.40;;;4.53;;
18159;SDS011;9205;52.032;4.314;2023-05-10T06:53:47;10.33;;;4.77;;
18159;SDS011;9205;52.032;4.314;2023-05-10T06:56:15;11.83;;;4.90;;
18159;SDS011;9205;52.032;4.314;2023-05-10T06:58:42;8.40;;;4.80;;
18159;SDS011;9205;52.032;4.314;2023-05-10T07:01:09;9.23;;;4.73;;
18159;SDS011;9205;52.032;4.314;2023-05-10T07:03:37;10.10;;;4.77;;
18159;SDS011;9205;52.032;4.314;2023-05-10T07:06:05;9.87;;;5.10;;
18159;SDS011;9205;52.032;4.314;2023-05-10T07:08:33;10.83;;;4.63;;
18159;SDS011;9205;52.032;4.314;2023-05-10T07:11:01;8.10;;;4.60;;
18159;SDS011;9205;52.032;4.314;2023-05-10T07:13:29;8.03;;;4.53;;
18159;SDS011;9205;52.032;4.314;2023-05-10T07:15:57;13.23;;;4.70;;
18159;SDS011;9205;52.032;4.314;2023-05-10T07:18:24;12.43;;;4.87;;
18159;SDS011;9205;52.032;4.314;2023-05-10T07:20:53;8.87;;;5.00;;
18159;SDS011;9205;52.032;4.314;2023-05-10T07:23:20;8.50;;;4.60;;
18159;SDS011;9205;52.032;4.314;2023-05-10T07:25:48;8.67;;;4.50;;
18159;SDS011;9205;52.032;4.314;2023-05-10T07:28:17;6.67;;;4.00;;
18159;SDS011;9205;52.032;4.314;2023-05-10T07:30:45;6.87;;;4.00;;
18159;SDS011;9205;52.032;4.314;2023-05-10T07:33:13;8.30;;;4.27;;
18159;SDS011;9205;52.032;4.314;2023-05-10T07:35:41;8.40;;;4.00;;
18159;SDS011;9205;52.032;4.314;2023-05-10T07:38:10;7.57;;;4.80;;
18159;SDS011;9205;52.032;4.314;2023-05-10T07:40:38;8.13;;;4.20;;
18159;SDS011;9205;52.032;4.314;2023-05-10T07:43:06;9.53;;;3.90;;
18159;SDS011;9205;52.032;4.314;2023-05-10T07:45:33;8.23;;;4.17;;
18159;SDS011;9205;52.032;4.314;2023-05-10T07:48:00;7.50;;;3.97;;
18159;SDS011;9205;52.032;4.314;2023-05-10T07:50:28;7.43;;;4.03;;
18159;SDS011;9205;52.032;4.314;2023-05-10T07:52:56;7.37;;;3.93;;
18159;SDS011;9205;52.032;4.314;2023-05-10T07:55:25;5.00;;;3.47;;
18159;SDS011;9205;52.032;4.314;2023-05-10T07:57:52;8.30;;;3.93;;
18159;SDS011;9205;52.032;4.314;2023-05-10T08:00:19;7.00;;;3.33;;
18159;SDS011;9205;52.032;4.314;2023-05-10T08:02:47;6.13;;;3.53;;
18159;SDS011;9205;52.032;4.314;2023-05-10T08:05:14;5.67;;;3.20;;
18159;SDS011;9205;52.032;4.314;2023-05-10T08:07:41;7.60;;;3.53;;
18159;SDS011;9205;52.032;4.314;2023-05-10T08:10:09;5.37;;;3.27;;
18159;SDS011;9205;52.032;4.314;2023-05-10T08:12:38;6.73;;;3.50;;
18159;SDS011;9205;52.032;4.314;2023-05-10T08:15:06;5.90;;;3.00;;
18159;SDS011;9205;52.032;4.314;2023-05-10T08:17:35;4.70;;;2.87;;
18159;SDS011;9205;52.032;4.314;2023-05-10T08:20:02;6.30;;;3.20;;
18159;SDS011;9205;52.032;4.314;2023-05-10T08:22:30;5.30;;;2.63;;
18159;SDS011;9205;52.032;4.314;2023-05-10T08:24:57;6.90;;;3.00;;
18159;SDS011;9205;52.032;4.314;2023-05-10T08:27:25;5.73;;;3.10;;
18159;SDS011;9205;52.032;4.314;2023-05-10T08:29:53;5.53;;;3.47;;
18159;SDS011;9205;52.032;4.314;2023-05-10T08:32:20;5.97;;;2.93;;
18159;SDS011;9205;52.032;4.314;2023-05-10T08:34:48;8.80;;;4.00;;
18159;SDS011;9205;52.032;4.314;2023-05-10T08:37:15;10.90;;;4.00;;
18159;SDS011;9205;52.032;4.314;2023-05-10T08:39:42;9.30;;;4.50;;
18159;SDS011;9205;52.032;4.314;2023-05-10T08:42:10;8.30;;;4.07;;
18159;SDS011;9205;52.032;4.314;2023-05-10T08:44:42;8.60;;;3.87;;
18159;SDS011;9205;52.032;4.314;2023-05-10T08:47:10;7.37;;;3.87;;
18159;SDS011;9205;52.032;4.314;2023-05-10T08:49:41;7.73;;;4.20;;
18159;SDS011;9205;52.032;4.314;2023-05-10T08:52:10;9.10;;;4.70;;
18159;SDS011;9205;52.032;4.314;2023-05-10T08:54:42;8.93;;;4.33;;
18159;SDS011;9205;52.032;4.314;2023-05-10T08:57:10;8.50;;;3.93;;
18159;SDS011;9205;52.032;4.314;2023-05-10T08:59:37;8.67;;;4.03;;
18159;SDS011;9205;52.032;4.314;2023-05-10T09:02:05;8.77;;;4.23;;
18159;SDS011;9205;52.032;4.314;2023-05-10T09:04:34;9.07;;;4.40;;
18159;SDS011;9205;52.032;4.314;2023-05-10T09:07:02;10.47;;;4.83;;
18159;SDS011;9205;52.032;4.314;2023-05-10T09:09:29;9.10;;;4.17;;
18159;SDS011;9205;52.032;4.314;2023-05-10T09:11:57;11.37;;;4.03;;
18159;SDS011;9205;52.032;4.314;2023-05-10T09:14:25;10.90;;;4.77;;
18159;SDS011;9205;52.032;4.314;2023-05-10T09:16:53;13.17;;;4.27;;
18159;SDS011;9205;52.032;4.314;2023-05-10T09:19:21;10.93;;;4.50;;
18159;SDS011;9205;52.032;4.314;2023-05-10T09:21:49;8.73;;;4.00;;
18159;SDS011;9205;52.032;4.314;2023-05-10T09:24:17;11.43;;;4.40;;
18159;SDS011;9205;52.032;4.314;2023-05-10T09:26:47;8.63;;;4.47;;
18159;SDS011;9205;52.032;4.314;2023-05-10T09:29:15;8.83;;;4.47;;
18159;SDS011;9205;52.032;4.314;2023-05-10T09:31:46;9.03;;;4.07;;
18159;SDS011;9205;52.032;4.314;2023-05-10T09:34:17;10.13;;;4.57;;
18159;SDS011;9205;52.032;4.314;2023-05-10T09:36:54;12.37;;;4.47;;
18159;SDS011;9205;52.032;4.314;2023-05-10T09:39:32;11.37;;;4.90;;
18159;SDS011;9205;52.032;4.314;2023-05-10T09:42:02;9.53;;;4.70;;
18159;SDS011;9205;52.032;4.314;2023-05-10T09:44:31;12.77;;;4.73;;
18159;SDS011;9205;52.032;4.314;2023-05-10T09:46:59;12.17;;;4.77;;
18159;SDS011;9205;52.032;4.314;2023-05-10T09:49:27;8.47;;;4.50;;
18159;SDS011;9205;52.032;4.314;2023-05-10T09:52:03;8.87;;;4.13;;
18159;SDS011;9205;52.032;4.314;2023-05-10T09:54:32;7.03;;;3.90;;
18159;SDS011;9205;52.032;4.314;2023-05-10T09:57:01;10.33;;;4.10;;
18159;SDS011;9205;52.032;4.314;2023-05-10T09:59:30;7.57;;;3.80;;
18159;SDS011;9205;52.032;4.314;2023-05-10T10:02:00;7.13;;;4.20;;
18159;SDS011;9205;52.032;4.314;2023-05-10T10:04:29;8.37;;;4.47;;
18159;SDS011;9205;52.032;4.314;2023-05-10T10:07:00;10.37;;;4.80;;
18159;SDS011;9205;52.032;4.314;2023-05-10T10:09:31;7.87;;;4.80;;
18159;SDS011;9205;52.032;4.314;2023-05-10T10:11:59;8.43;;;4.20;;
18159;SDS011;9205;52.032;4.314;2023-05-10T10:14:28;8.77;;;4.43;;
18159;SDS011;9205;52.032;4.314;2023-05-10T10:16:56;8.57;;;4.13;;
18159;SDS011;9205;52.032;4.314;2023-05-10T10:19:27;8.13;;;3.97;;
18159;SDS011;9205;52.032;4.314;2023-05-10T10:21:55;6.57;;;4.03;;
18159;SDS011;9205;52.032;4.314;2023-05-10T10:24:25;7.27;;;4.43;;
18159;SDS011;9205;52.032;4.314;2023-05-10T10:26:52;7.47;;;4.67;;
18159;SDS011;9205;52.032;4.314;2023-05-10T10:29:31;6.43;;;4.50;;
18159;SDS011;9205;52.032;4.314;2023-05-10T10:32:10;8.33;;;4.60;;
18159;SDS011;9205;52.032;4.314;2023-05-10T10:34:49;7.13;;;4.60;;
18159;SDS011;9205;52.032;4.314;2023-05-10T10:37:17;8.03;;;4.67;;
18159;SDS011;9205;52.032;4.314;2023-05-10T10:39:46;5.73;;;4.00;;
18159;SDS011;9205;52.032;4.314;2023-05-10T10:42:14;6.93;;;4.43;;
18159;SDS011;9205;52.032;4.314;2023-05-10T10:45:11;8.03;;;4.80;;
18159;SDS011;9205;52.032;4.314;2023-05-10T10:47:39;6.77;;;4.63;;
18159;SDS011;9205;52.032;4.314;2023-05-10T10:50:08;6.97;;;4.60;;
18159;SDS011;9205;52.032;4.314;2023-05-10T10:52:38;12.53;;;5.97;;
18159;SDS011;9205;52.032;4.314;2023-05-10T10:55:08;8.67;;;4.60;;
18159;SDS011;9205;52.032;4.314;2023-05-10T10:57:46;9.47;;;4.77;;
18159;SDS011;9205;52.032;4.314;2023-05-10T11:00:24;9.83;;;5.27;;
18159;SDS011;9205;52.032;4.314;2023-05-10T11:02:56;8.60;;;4.67;;
18159;SDS011;9205;52.032;4.314;2023-05-10T11:08:15;8.83;;;4.47;;
18159;SDS011;9205;52.032;4.314;2023-05-10T11:11:03;8.97;;;4.30;;
18159;SDS011;9205;52.032;4.314;2023-05-10T11:13:38;8.37;;;4.50;;
18159;SDS011;9205;52.032;4.314;2023-05-10T11:16:11;8.83;;;4.70;;
18159;SDS011;9205;52.032;4.314;2023-05-10T11:18:52;9.47;;;4.70;;
18159;SDS011;9205;52.032;4.314;2023-05-10T11:21:23;7.37;;;4.10;;
18159;SDS011;9205;52.032;4.314;2023-05-10T11:23:51;9.37;;;4.50;;
18159;SDS011;9205;52.032;4.314;2023-05-10T11:26:24;10.50;;;4.37;;
18159;SDS011;9205;52.032;4.314;2023-05-10T11:28:56;12.93;;;4.53;;
18159;SDS011;9205;52.032;4.314;2023-05-10T11:31:25;9.60;;;4.30;;
18159;SDS011;9205;52.032;4.314;2023-05-10T11:33:53;8.03;;;4.20;;
18159;SDS011;9205;52.032;4.314;2023-05-10T11:36:23;9.07;;;4.27;;
18159;SDS011;9205;52.032;4.314;2023-05-10T11:38:52;11.23;;;4.60;;
18159;SDS011;9205;52.032;4.314;2023-05-10T11:41:21;10.03;;;4.37;;
18159;SDS011;9205;52.032;4.314;2023-05-10T11:43:52;9.00;;;4.33;;
18159;SDS011;9205;52.032;4.314;2023-05-10T11:46:21;7.80;;;4.07;;
18159;SDS011;9205;52.032;4.314;2023-05-10T11:48:50;9.07;;;4.60;;
18159;SDS011;9205;52.032;4.314;2023-05-10T11:51:20;8.07;;;3.93;;
18159;SDS011;9205;52.032;4.314;2023-05-10T11:53:49;7.87;;;3.77;;
18159;SDS011;9205;52.032;4.314;2023-05-10T11:56:19;8.07;;;4.07;;
18159;SDS011;9205;52.032;4.314;2023-05-10T11:58:53;8.20;;;4.37;;
18159;SDS011;9205;52.032;4.314;2023-05-10T12:01:22;10.83;;;3.87;;
18159;SDS011;9205;52.032;4.314;2023-05-10T12:03:51;9.07;;;4.60;;
18159;SDS011;9205;52.032;4.314;2023-05-10T12:06:25;9.07;;;3.90;;
18159;SDS011;9205;52.032;4.314;2023-05-10T12:08:54;8.67;;;4.40;;
18159;SDS011;9205;52.032;4.314;2023-05-10T12:11:24;8.27;;;4.43;;
18159;SDS011;9205;52.032;4.314;2023-05-10T12:13:54;11.17;;;4.53;;
18159;SDS011;9205;52.032;4.314;2023-05-10T12:16:22;9.07;;;4.80;;
18159;SDS011;9205;52.032;4.314;2023-05-10T12:18:53;7.57;;;4.17;;
18159;SDS011;9205;52.032;4.314;2023-05-10T12:21:24;11.40;;;4.40;;
18159;SDS011;9205;52.032;4.314;2023-05-10T12:23:54;8.90;;;4.57;;
18159;SDS011;9205;52.032;4.314;2023-05-10T12:26:27;9.70;;;4.37;;
18159;SDS011;9205;52.032;4.314;2023-05-10T12:29:11;10.17;;;4.37;;
18159;SDS011;9205;52.032;4.314;2023-05-10T12:31:53;8.33;;;4.23;;
18159;SDS011;9205;52.032;4.314;2023-05-10T12:34:23;11.10;;;4.30;;
18159;SDS011;9205;52.032;4.314;2023-05-10T12:36:52;9.43;;;4.70;;
18159;SDS011;9205;52.032;4.314;2023-05-10T12:39:19;9.07;;;4.50;;
18159;SDS011;9205;52.032;4.314;2023-05-10T12:41:49;11.10;;;4.80;;
18159;SDS011;9205;52.032;4.314;2023-05-10T12:44:19;10.10;;;4.50;;
18159;SDS011;9205;52.032;4.314;2023-05-10T12:46:46;8.70;;;4.40;;
18159;SDS011;9205;52.032;4.314;2023-05-10T12:49:13;9.37;;;4.20;;
18159;SDS011;9205;52.032;4.314;2023-05-10T12:51:41;8.47;;;3.93;;
18159;SDS011;9205;52.032;4.314;2023-05-10T12:54:09;8.47;;;4.30;;
18159;SDS011;9205;52.032;4.314;2023-05-10T12:56:36;9.33;;;3.83;;
18159;SDS011;9205;52.032;4.314;2023-05-10T12:59:03;10.20;;;4.27;;
18159;SDS011;9205;52.032;4.314;2023-05-10T13:01:32;8.00;;;4.40;;
18159;SDS011;9205;52.032;4.314;2023-05-10T13:03:59;7.77;;;4.20;;
18159;SDS011;9205;52.032;4.314;2023-05-10T13:06:26;10.83;;;4.07;;
18159;SDS011;9205;52.032;4.314;2023-05-10T13:08:54;10.00;;;3.90;;
18159;SDS011;9205;52.032;4.314;2023-05-10T13:11:22;8.20;;;3.80;;
18159;SDS011;9205;52.032;4.314;2023-05-10T13:13:50;9.07;;;3.43;;
18159;SDS011;9205;52.032;4.314;2023-05-10T13:16:17;7.13;;;3.57;;
18159;SDS011;9205;52.032;4.314;2023-05-10T13:18:46;6.57;;;3.23;;
18159;SDS011;9205;52.032;4.314;2023-05-10T13:21:13;5.37;;;2.73;;
18159;SDS011;9205;52.032;4.314;2023-05-10T13:23:41;7.40;;;2.93;;
18159;SDS011;9205;52.032;4.314;2023-05-10T13:26:08;4.87;;;3.10;;
18159;SDS011;9205;52.032;4.314;2023-05-10T13:28:36;4.70;;;2.87;;
18159;SDS011;9205;52.032;4.314;2023-05-10T13:31:03;5.20;;;3.17;;
18159;SDS011;9205;52.032;4.314;2023-05-10T13:33:31;5.20;;;2.97;;
18159;SDS011;9205;52.032;4.314;2023-05-10T13:35:59;5.87;;;2.83;;
18159;SDS011;9205;52.032;4.314;2023-05-10T13:38:27;6.37;;;3.00;;
18159;SDS011;9205;52.032;4.314;2023-05-10T13:40:54;8.77;;;3.17;;
18159;SDS011;9205;52.032;4.314;2023-05-10T13:43:21;5.17;;;3.10;;
18159;SDS011;9205;52.032;4.314;2023-05-10T13:45:48;4.97;;;2.50;;
18159;SDS011;9205;52.032;4.314;2023-05-10T13:48:15;7.70;;;3.60;;
18159;SDS011;9205;52.032;4.314;2023-05-10T13:50:43;4.70;;;2.73;;
18159;SDS011;9205;52.032;4.314;2023-05-10T13:53:11;5.73;;;3.20;;
18159;SDS011;9205;52.032;4.314;2023-05-10T13:55:39;4.50;;;3.03;;
18159;SDS011;9205;52.032;4.314;2023-05-10T13:58:06;4.73;;;2.50;;
18159;SDS011;9205;52.032;4.314;2023-05-10T14:00:33;5.00;;;3.00;;
18159;SDS011;9205;52.032;4.314;2023-05-10T14:03:01;5.53;;;3.30;;
18159;SDS011;9205;52.032;4.314;2023-05-10T14:05:29;5.30;;;2.93;;
18159;SDS011;9205;52.032;4.314;2023-05-10T14:07:57;5.33;;;3.30;;
18159;SDS011;9205;52.032;4.314;2023-05-10T14:10:25;5.57;;;3.37;;
18159;SDS011;9205;52.032;4.314;2023-05-10T14:12:53;7.30;;;3.30;;
18159;SDS011;9205;52.032;4.314;2023-05-10T14:15:20;5.80;;;3.20;;
18159;SDS011;9205;52.032;4.314;2023-05-10T14:17:48;5.40;;;3.03;;
18159;SDS011;9205;52.032;4.314;2023-05-10T14:20:15;4.67;;;3.03;;
18159;SDS011;9205;52.032;4.314;2023-05-10T14:22:42;5.33;;;2.87;;
18159;SDS011;9205;52.032;4.314;2023-05-10T14:25:10;8.53;;;3.80;;
18159;SDS011;9205;52.032;4.314;2023-05-10T14:27:39;5.90;;;3.07;;
18159;SDS011;9205;52.032;4.314;2023-05-10T14:30:06;6.13;;;3.00;;
18159;SDS011;9205;52.032;4.314;2023-05-10T14:32:35;6.30;;;3.20;;
18159;SDS011;9205;52.032;4.314;2023-05-10T14:35:03;6.80;;;2.90;;
18159;SDS011;9205;52.032;4.314;2023-05-10T14:37:31;3.60;;;2.60;;
18159;SDS011;9205;52.032;4.314;2023-05-10T14:39:58;3.33;;;2.43;;
18159;SDS011;9205;52.032;4.314;2023-05-10T14:42:25;4.20;;;2.40;;
18159;SDS011;9205;52.032;4.314;2023-05-10T14:44:54;4.57;;;3.20;;
18159;SDS011;9205;52.032;4.314;2023-05-10T14:47:22;3.37;;;2.67;;
18159;SDS011;9205;52.032;4.314;2023-05-10T14:49:49;2.97;;;2.40;;
18159;SDS011;9205;52.032;4.314;2023-05-10T14:52:16;3.47;;;2.63;;
18159;SDS011;9205;52.032;4.314;2023-05-10T14:54:43;3.23;;;2.50;;
18159;SDS011;9205;52.032;4.314;2023-05-10T14:57:11;5.00;;;2.73;;
18159;SDS011;9205;52.032;4.314;2023-05-10T14:59:38;5.20;;;3.10;;
18159;SDS011;9205;52.032;4.314;2023-05-10T15:02:07;4.30;;;2.60;;
18159;SDS011;9205;52.032;4.314;2023-05-10T15:04:35;4.13;;;2.87;;
18159;SDS011;9205;52.032;4.314;2023-05-10T15:07:02;4.73;;;2.90;;
18159;SDS011;9205;52.032;4.314;2023-05-10T15:09:30;6.60;;;3.03;;
18159;SDS011;9205;52.032;4.314;2023-05-10T15:11:58;5.17;;;3.20;;
18159;SDS011;9205;52.032;4.314;2023-05-10T15:14:29;6.20;;;3.63;;